createdAt,value
2019-05-10T00:00:07.447Z,95808.42
2019-05-10T00:02:54.833Z,95807.61
2019-05-10T00:05:41.721Z,95815.36
2019-05-10T00:08:28.987Z,95811.89
2019-05-10T00:11:32.765Z,95814.84
2019-05-10T00:14:25.801Z,95819.64
2019-05-10T00:16:58.335Z,95817.80
2019-05-10T00:19:27.600Z,95813.22
2019-05-10T00:21:56.991Z,95808.42
2019-05-10T00:24:26.335Z,95810.27
2019-05-10T00:26:55.754Z,95812.69
2019-05-10T00:29:25.086Z,95815.36
2019-05-10T00:31:54.636Z,95811.89
2019-05-10T00:34:23.879Z,95813.20
2019-05-10T00:36:53.367Z,95814.83
2019-05-10T00:39:22.817Z,95817.75
2019-05-10T00:41:52.137Z,95819.63
2019-05-10T00:44:21.453Z,95814.56
2019-05-10T00:46:50.789Z,95823.38
2019-05-10T00:49:20.261Z,95821.25
2019-05-10T00:51:49.673Z,95817.76
2019-05-10T00:54:19.113Z,95820.70
2019-05-10T00:56:48.535Z,95824.98
2019-05-10T00:59:17.881Z,95816.42
2019-05-10T01:01:47.291Z,95820.98
2019-05-10T01:04:16.630Z,95820.44
2019-05-10T01:06:46.042Z,95815.64
2019-05-10T01:09:15.374Z,95819.66
2019-05-10T01:11:44.799Z,95821.52
2019-05-10T01:14:14.165Z,95825.52
2019-05-10T01:16:43.621Z,95825.78
2019-05-10T01:19:12.901Z,95830.06
2019-05-10T01:21:42.341Z,95832.45
2019-05-10T01:24:11.590Z,95828.72
2019-05-10T01:26:40.999Z,95831.92
2019-05-10T01:29:10.248Z,95834.55
2019-05-10T01:31:39.706Z,95840.70
2019-05-10T01:34:09.074Z,95838.83
2019-05-10T01:36:38.439Z,95840.72
2019-05-10T01:39:07.824Z,95850.59
2019-05-10T01:41:37.239Z,95851.66
2019-05-10T01:44:06.646Z,95851.95
2019-05-10T01:46:36.035Z,95848.75
2019-05-10T01:49:05.422Z,95850.89
2019-05-10T01:51:34.853Z,95851.95
2019-05-10T01:54:04.344Z,95850.37
2019-05-10T01:56:33.689Z,95855.41
2019-05-10T01:59:03.097Z,95857.02
2019-05-10T02:01:32.684Z,95857.27
2019-05-10T02:04:02.001Z,95856.48
2019-05-10T02:06:31.379Z,95858.89
2019-05-10T02:09:00.885Z,95860.23
2019-05-10T02:11:30.326Z,95862.09
2019-05-10T02:13:59.751Z,95865.05
2019-05-10T02:16:29.063Z,95870.36
2019-05-10T02:18:58.677Z,95867.44
2019-05-10T02:21:27.980Z,95871.73
2019-05-10T02:23:57.336Z,95874.91
2019-05-10T02:26:26.711Z,95875.47
2019-05-10T02:28:55.994Z,95873.31
2019-05-10T02:31:25.386Z,95881.88
2019-05-10T02:33:54.741Z,95885.07
2019-05-10T02:36:24.087Z,95878.94
2019-05-10T02:38:53.583Z,95883.43
2019-05-10T02:41:22.942Z,95881.80
2019-05-10T02:43:52.304Z,95889.52
2019-05-10T02:46:21.595Z,95893.50
2019-05-10T02:48:50.942Z,95900.45
2019-05-10T02:51:20.357Z,95893.52
2019-05-10T02:53:49.789Z,95895.38
2019-05-10T02:56:30.226Z,95896.76
2019-05-10T02:58:53.103Z,95897.28
2019-05-10T03:01:25.359Z,95898.87
2019-05-10T03:03:56.347Z,95898.33
2019-05-10T03:06:27.087Z,95906.87
2019-05-10T03:08:56.435Z,95903.95
2019-05-10T03:11:28.815Z,95907.65
2019-05-10T03:14:01.129Z,95908.14
2019-05-10T03:16:33.298Z,95914.54
2019-05-10T03:19:04.181Z,95907.30
2019-05-10T03:21:36.623Z,95908.58
2019-05-10T03:24:06.045Z,95912.56
2019-05-10T03:26:50.229Z,95917.37
2019-05-10T03:29:07.285Z,95915.42
2019-05-10T03:31:36.600Z,95915.67
2019-05-10T03:34:05.984Z,95912.53
2019-05-10T03:36:35.242Z,95925.87
2019-05-10T03:39:06.064Z,95924.84
2019-05-10T03:41:35.992Z,95925.12
2019-05-10T03:44:05.490Z,95924.56
2019-05-10T03:46:34.927Z,95930.48
2019-05-10T03:49:04.244Z,95927.00
2019-05-10T03:51:33.615Z,95932.31
2019-05-10T03:54:03.069Z,95931.81
2019-05-10T03:56:32.404Z,95933.64
2019-05-10T03:59:01.745Z,95933.14
2019-05-10T04:01:31.230Z,95937.42
2019-05-10T04:04:00.602Z,95934.23
2019-05-10T04:06:30.012Z,95939.31
2019-05-10T04:08:59.432Z,95942.55
2019-05-10T04:11:28.843Z,95944.97
2019-05-10T04:13:58.200Z,95950.88
2019-05-10T04:16:27.846Z,95950.08
2019-05-10T04:18:57.186Z,95950.62
2019-05-10T04:21:26.472Z,95947.42
2019-05-10T04:23:55.846Z,95955.70
2019-05-10T04:26:25.309Z,95955.50
2019-05-10T04:28:54.704Z,95954.65
2019-05-10T04:31:24.014Z,95958.70
2019-05-10T04:33:53.471Z,95963.53
2019-05-10T04:36:22.933Z,95968.33
2019-05-10T04:38:52.264Z,95963.25
2019-05-10T04:41:21.830Z,95967.55
2019-05-10T04:43:51.058Z,95966.76
2019-05-10T04:46:20.538Z,95968.91
2019-05-10T04:48:49.973Z,95977.42
2019-05-10T04:51:19.530Z,95976.10
2019-05-10T04:53:48.896Z,95979.31
2019-05-10T04:56:18.230Z,95977.45
2019-05-10T04:58:47.624Z,95979.81
2019-05-10T05:01:17.251Z,95988.83
2019-05-10T05:03:46.752Z,95985.34
2019-05-10T05:06:16.086Z,95981.85
2019-05-10T05:08:45.298Z,95997.05
2019-05-10T05:11:14.707Z,95998.95
2019-05-10T05:13:44.032Z,95994.41
2019-05-10T05:16:13.346Z,96007.53
2019-05-10T05:18:42.996Z,96006.72
2019-05-10T05:21:12.363Z,96017.73
2019-05-10T05:23:41.751Z,96012.94
2019-05-10T05:26:11.058Z,96014.78
2019-05-10T05:28:40.373Z,96025.25
2019-05-10T05:31:09.778Z,96019.42
2019-05-10T05:33:39.173Z,96024.48
2019-05-10T05:36:08.465Z,96025.83
2019-05-10T05:38:40.664Z,96020.17
2019-05-10T05:41:08.981Z,96028.92
2019-05-10T05:43:45.542Z,96025.48
2019-05-10T05:46:09.556Z,96030.16
2019-05-10T05:48:40.437Z,96024.58
2019-05-10T05:51:10.055Z,96033.05
2019-05-10T05:53:42.362Z,96028.42
2019-05-10T05:56:14.167Z,96036.30
2019-05-10T05:58:44.572Z,96041.25
2019-05-10T06:01:24.266Z,96035.09
2019-05-10T06:03:43.979Z,96024.22
2019-05-10T06:06:21.439Z,96031.30
2019-05-10T06:08:44.458Z,96044.53
2019-05-10T06:11:13.854Z,96038.15
2019-05-10T06:13:43.269Z,96041.50
2019-05-10T06:16:14.755Z,96041.56
2019-05-10T06:18:47.353Z,96047.12
2019-05-10T06:21:17.736Z,96040.48
2019-05-10T06:23:45.985Z,96047.59
2019-05-10T06:26:26.615Z,96051.48
2019-05-10T06:29:04.742Z,96058.72
2019-05-10T06:31:17.569Z,96065.04
2019-05-10T06:33:46.985Z,96066.36
2019-05-10T06:36:16.374Z,96067.60
2019-05-10T06:38:45.720Z,96077.15
2019-05-10T06:41:16.875Z,96088.09
2019-05-10T06:43:51.189Z,96095.67
2019-05-10T06:46:17.308Z,96085.98
2019-05-10T06:48:46.547Z,96087.16
2019-05-10T06:51:15.960Z,96097.13
2019-05-10T06:53:52.509Z,96105.58
2019-05-10T06:56:16.485Z,96096.73
2019-05-10T06:58:45.864Z,96092.70
2019-05-10T07:01:15.326Z,96089.58
2019-05-10T07:03:44.628Z,96098.25
2019-05-10T07:06:14.033Z,96094.84
2019-05-10T07:08:45.794Z,96102.45
2019-05-10T07:11:14.661Z,96088.09
2019-05-10T07:13:46.532Z,96102.30
2019-05-10T07:16:23.974Z,96104.38
2019-05-10T07:18:46.403Z,96097.66
2019-05-10T07:21:15.807Z,96110.44
2019-05-10T07:23:47.591Z,96105.86
2019-05-10T07:26:17.482Z,96109.24
2019-05-10T07:28:51.922Z,96113.00
2019-05-10T07:31:23.078Z,96127.59
2019-05-10T07:33:49.621Z,96117.08
2019-05-10T07:36:20.775Z,96134.81
2019-05-10T07:38:50.019Z,96134.81
2019-05-10T07:41:26.362Z,96138.70
2019-05-10T07:43:50.738Z,96137.64
2019-05-10T07:46:20.156Z,96138.10
2019-05-10T07:48:53.420Z,96146.91
2019-05-10T07:51:23.004Z,96155.09
2019-05-10T07:53:57.126Z,96149.69
2019-05-10T07:56:22.862Z,96159.25
2019-05-10T07:58:52.138Z,96152.59
2019-05-10T08:01:32.140Z,96169.83
2019-05-10T08:03:52.765Z,96167.05
2019-05-10T08:06:22.071Z,96176.36
2019-05-10T08:08:55.595Z,96169.77
2019-05-10T08:11:22.602Z,96164.18
2019-05-10T08:13:52.004Z,96169.85
2019-05-10T08:16:22.833Z,96170.39
2019-05-10T08:18:55.694Z,96170.59
2019-05-10T08:21:26.346Z,96170.59
2019-05-10T08:23:59.072Z,96159.89
2019-05-10T08:26:26.190Z,96165.90
2019-05-10T08:28:55.527Z,96173.88
2019-05-10T08:31:26.348Z,96174.27
2019-05-10T08:33:58.810Z,96171.55
2019-05-10T08:36:27.102Z,96184.35
2019-05-10T08:39:07.036Z,96199.42
2019-05-10T08:41:27.643Z,96186.37
2019-05-10T08:43:57.016Z,96186.37
2019-05-10T08:46:37.215Z,96181.00
2019-05-10T08:48:57.658Z,96178.99
2019-05-10T08:51:27.063Z,96176.14
2019-05-10T08:53:58.282Z,96185.36
2019-05-10T08:56:27.548Z,96195.31
2019-05-10T08:58:57.050Z,96188.59
2019-05-10T09:01:30.399Z,96199.23
2019-05-10T09:04:01.962Z,96200.38
2019-05-10T09:06:28.702Z,96204.59
2019-05-10T09:09:01.582Z,96197.19
2019-05-10T09:11:29.111Z,96199.63
2019-05-10T09:13:58.566Z,96203.38
2019-05-10T09:16:29.178Z,96203.38
2019-05-10T09:18:59.142Z,96203.06
2019-05-10T09:21:28.482Z,96200.38
2019-05-10T09:24:01.488Z,96214.00
2019-05-10T09:26:28.932Z,96212.23
2019-05-10T09:28:58.261Z,96221.99
2019-05-10T09:31:27.653Z,96218.58
2019-05-10T09:33:57.115Z,96230.09
2019-05-10T09:36:30.883Z,96234.39
2019-05-10T09:38:57.841Z,96221.35
2019-05-10T09:41:32.375Z,96228.69
2019-05-10T09:43:58.940Z,96239.23
2019-05-10T09:46:28.329Z,96243.81
2019-05-10T09:49:06.124Z,96236.50
2019-05-10T09:51:30.419Z,96240.05
2019-05-10T09:54:00.521Z,96240.53
2019-05-10T09:56:32.873Z,96238.73
2019-05-10T09:59:00.956Z,96256.03
2019-05-10T10:01:30.525Z,96245.38
2019-05-10T10:04:01.982Z,96243.59
2019-05-10T10:06:30.821Z,96251.64
2019-05-10T10:09:00.909Z,96252.98
2019-05-10T10:11:30.517Z,96241.74
2019-05-10T10:14:02.155Z,96244.80
2019-05-10T10:16:30.935Z,96242.64
2019-05-10T10:19:00.340Z,96247.06
2019-05-10T10:21:34.838Z,96241.97
2019-05-10T10:24:12.647Z,96241.19
2019-05-10T10:26:31.936Z,96244.67
2019-05-10T10:29:01.372Z,96237.14
2019-05-10T10:31:33.574Z,96236.05
2019-05-10T10:34:03.190Z,96243.09
2019-05-10T10:36:32.801Z,96234.21
2019-05-10T10:39:02.254Z,96234.36
2019-05-10T10:41:32.078Z,96232.34
2019-05-10T10:44:01.513Z,96229.19
2019-05-10T10:46:34.224Z,96231.93
2019-05-10T10:49:02.045Z,96230.41
2019-05-10T10:51:32.688Z,96222.91
2019-05-10T10:54:02.580Z,96220.47
2019-05-10T10:56:31.823Z,96240.14
2019-05-10T10:59:01.243Z,96226.49
2019-05-10T11:01:46.215Z,96227.09
2019-05-10T11:04:08.130Z,96217.95
2019-05-10T11:06:33.631Z,96218.73
2019-05-10T11:09:03.605Z,96220.60
2019-05-10T11:11:38.984Z,96230.25
2019-05-10T11:14:07.251Z,96227.73
2019-05-10T11:16:35.760Z,96223.98
2019-05-10T11:19:11.132Z,96222.39
2019-05-10T11:21:36.517Z,96204.38
2019-05-10T11:24:10.495Z,96227.73
2019-05-10T11:26:37.418Z,96220.53
2019-05-10T11:29:06.779Z,96221.45
2019-05-10T11:31:36.259Z,96216.25
2019-05-10T11:34:06.334Z,96221.72
2019-05-10T11:36:40.398Z,96217.91
2019-05-10T11:39:24.837Z,96209.16
2019-05-10T11:41:39.224Z,96210.12
2019-05-10T11:44:11.461Z,96210.64
2019-05-10T11:46:41.640Z,96212.30
2019-05-10T11:49:11.162Z,96207.71
2019-05-10T11:51:41.327Z,96212.91
2019-05-10T11:54:11.302Z,96208.97
2019-05-10T11:56:41.157Z,96211.97
2019-05-10T12:01:42.036Z,96212.75
2019-05-10T12:06:49.860Z,96221.13
2019-05-10T12:09:13.826Z,96218.17
2019-05-10T12:14:13.939Z,96208.55
2019-05-10T12:16:43.652Z,96203.46
2019-05-10T12:19:19.816Z,96230.37
2019-05-10T12:21:44.076Z,96217.55
2019-05-10T12:24:31.222Z,96234.34
2019-05-10T12:26:20.050Z,96216.17
2019-05-10T12:26:57.064Z,96217.30
2019-05-10T12:27:13.142Z,96223.21
2019-05-10T12:29:17.272Z,96221.05
2019-05-10T12:31:47.436Z,96221.08
2019-05-10T12:34:17.969Z,96218.95
2019-05-10T12:36:47.385Z,96228.98
2019-05-10T12:39:16.749Z,96224.18
2019-05-10T12:41:49.778Z,96218.28
2019-05-10T12:44:17.234Z,96223.16
2019-05-10T12:46:46.720Z,96230.32
2019-05-10T12:49:16.100Z,96229.87
2019-05-10T12:51:45.568Z,96216.18
2019-05-10T12:54:18.499Z,96222.02
2019-05-10T12:56:46.324Z,96210.34
2019-05-10T12:59:15.653Z,96227.02
2019-05-10T13:01:45.065Z,96218.44
2019-05-10T13:04:16.787Z,96225.13
2019-05-10T13:06:45.416Z,96250.16
2019-05-10T13:09:14.838Z,96239.53
2019-05-10T13:11:44.204Z,96242.45
2019-05-10T13:14:13.672Z,96229.88
2019-05-10T13:16:43.167Z,96227.86
2019-05-10T13:19:14.156Z,96221.07
2019-05-10T13:21:43.586Z,96236.61
2019-05-10T13:24:12.854Z,96216.08
2019-05-10T13:26:42.400Z,96233.17
2019-05-10T13:29:11.729Z,96232.14
2019-05-10T13:31:43.008Z,96235.27
2019-05-10T13:34:12.183Z,96231.27
2019-05-10T13:36:41.510Z,96232.69
2019-05-10T13:39:10.825Z,96236.54
2019-05-10T13:41:40.317Z,96238.38
2019-05-10T13:44:09.766Z,96231.76
2019-05-10T13:46:39.050Z,96242.66
2019-05-10T13:49:08.304Z,96239.23
2019-05-10T13:51:37.691Z,96233.72
2019-05-10T13:54:06.925Z,96234.95
2019-05-10T13:56:36.268Z,96255.70
2019-05-10T13:59:15.796Z,96253.18
2019-05-10T14:01:36.441Z,96243.11
2019-05-10T14:04:05.582Z,96244.53
2019-05-10T14:06:34.746Z,96242.87
2019-05-10T14:09:06.061Z,96246.51
2019-05-10T14:11:41.000Z,96240.95
2019-05-10T14:14:06.505Z,96247.89
2019-05-10T14:16:35.671Z,96247.45
2019-05-10T14:19:05.072Z,96247.81
2019-05-10T14:21:34.384Z,96253.78
2019-05-10T14:24:03.581Z,96243.09
2019-05-10T14:26:32.795Z,96253.69
2019-05-10T14:29:01.968Z,96252.44
2019-05-10T14:31:31.139Z,96258.95
2019-05-10T14:34:14.566Z,96252.49
2019-05-10T14:36:34.296Z,96245.22
2019-05-10T14:39:02.386Z,96260.92
2019-05-10T14:41:31.902Z,96251.78
2019-05-10T14:44:01.426Z,96255.16
2019-05-10T14:46:30.783Z,96246.06
2019-05-10T14:49:08.841Z,96242.09
2019-05-10T14:51:44.034Z,96249.89
2019-05-10T14:54:06.480Z,96253.66
2019-05-10T14:56:33.159Z,96250.98
2019-05-10T14:59:02.483Z,96267.10
2019-05-10T15:01:36.697Z,96258.29
2019-05-10T15:04:03.151Z,96259.73
2019-05-10T15:06:36.981Z,96268.19
2019-05-10T15:09:06.944Z,96264.31
2019-05-10T15:11:36.114Z,96275.81
2019-05-10T15:14:05.866Z,96266.03
2019-05-10T15:16:35.453Z,96269.03
2019-05-10T15:19:04.834Z,96270.69
2019-05-10T15:21:34.800Z,96274.87
2019-05-10T15:24:05.852Z,96273.83
2019-05-10T15:26:37.250Z,96270.31
2019-05-10T15:29:06.324Z,96267.33
2019-05-10T15:31:35.850Z,96261.44
2019-05-10T15:34:05.389Z,96270.05
2019-05-10T15:36:34.854Z,96264.90
2019-05-10T15:39:06.470Z,96255.70
2019-05-10T15:41:39.904Z,96256.37
2019-05-10T15:44:09.441Z,96269.98
2019-05-10T15:46:42.339Z,96267.99
2019-05-10T15:49:13.403Z,96260.09
2019-05-10T15:51:41.282Z,96273.45
2019-05-10T15:54:11.075Z,96258.19
2019-05-10T15:56:41.687Z,96261.61
2019-05-10T15:59:12.949Z,96265.52
2019-05-10T16:01:45.395Z,96261.05
2019-05-10T16:04:13.460Z,96256.83
2019-05-10T16:06:42.779Z,96275.02
2019-05-10T16:09:17.524Z,96264.91
2019-05-10T16:11:43.297Z,96266.58
2019-05-10T16:14:12.703Z,96265.38
2019-05-10T16:16:42.046Z,96267.63
2019-05-10T16:19:12.879Z,96269.73
2019-05-10T16:21:46.682Z,96269.73
2019-05-10T16:24:13.832Z,96274.02
2019-05-10T16:26:43.002Z,96285.28
2019-05-10T16:29:12.224Z,96279.76
2019-05-10T16:31:41.615Z,96274.85
2019-05-10T16:34:10.892Z,96273.36
2019-05-10T16:36:40.300Z,96271.00
2019-05-10T16:39:09.861Z,96270.02
2019-05-10T16:41:39.161Z,96268.73
2019-05-10T16:44:08.475Z,96277.46
2019-05-10T16:46:37.859Z,96274.65
2019-05-10T16:49:10.168Z,96263.04
2019-05-10T16:51:42.501Z,96271.80
2019-05-10T16:54:10.639Z,96266.59
2019-05-10T16:56:40.137Z,96261.89
2019-05-10T16:59:09.520Z,96266.25
2019-05-10T17:01:38.944Z,96263.13
2019-05-10T17:04:08.353Z,96248.83
2019-05-10T17:06:40.540Z,96246.77
2019-05-10T17:09:17.572Z,96249.63
2019-05-10T17:11:41.657Z,96249.55
2019-05-10T17:14:12.560Z,96241.62
2019-05-10T17:16:42.267Z,96241.62
2019-05-10T17:19:11.529Z,96252.55
2019-05-10T17:21:40.860Z,96238.25
2019-05-10T17:24:10.365Z,96242.64
2019-05-10T17:26:41.314Z,96244.50
2019-05-10T17:29:12.766Z,96243.30
2019-05-10T17:31:45.745Z,96235.63
2019-05-10T17:34:22.158Z,96233.30
2019-05-10T17:36:44.223Z,96228.22
2019-05-10T17:39:13.531Z,96215.95
2019-05-10T17:41:42.937Z,96224.03
2019-05-10T17:44:12.196Z,96224.03
2019-05-10T17:46:41.584Z,96217.81
2019-05-10T17:49:11.317Z,96233.66
2019-05-10T17:51:40.703Z,96237.73
2019-05-10T17:54:10.180Z,96237.19
2019-05-10T17:56:40.672Z,96233.88
2019-05-10T17:59:11.808Z,96237.64
2019-05-10T18:01:41.281Z,96240.19
2019-05-10T18:04:10.702Z,96233.13
2019-05-10T18:06:40.070Z,96233.13
2019-05-10T18:09:09.524Z,96246.27
2019-05-10T18:11:42.760Z,96243.09
2019-05-10T18:14:12.463Z,96245.02
2019-05-10T18:16:41.824Z,96250.77
2019-05-10T18:19:12.344Z,96257.31
2019-05-10T18:21:41.745Z,96268.05
2019-05-10T18:24:11.115Z,96269.75
2019-05-10T18:26:41.237Z,96269.20
2019-05-10T18:29:10.819Z,96269.83
2019-05-10T18:31:40.162Z,96270.83
2019-05-10T18:34:09.542Z,96266.30
2019-05-10T18:36:53.424Z,96272.27
2019-05-10T18:39:15.382Z,96278.91
2019-05-10T18:41:46.328Z,96268.80
2019-05-10T18:44:14.233Z,96267.78
2019-05-10T18:46:43.808Z,96275.97
2019-05-10T18:49:13.094Z,96268.58
2019-05-10T18:51:42.684Z,96262.64
2019-05-10T18:54:12.264Z,96267.48
2019-05-10T18:56:41.620Z,96263.98
2019-05-10T18:59:12.018Z,96261.86
2019-05-10T19:01:42.530Z,96264.34
2019-05-10T19:04:14.228Z,96266.80
2019-05-10T19:06:44.133Z,96260.44
2019-05-10T19:09:14.056Z,96260.26
2019-05-10T19:11:43.576Z,96258.14
2019-05-10T19:14:13.296Z,96264.33
2019-05-10T19:16:43.187Z,96265.27
2019-05-10T19:19:12.550Z,96273.56
2019-05-10T19:21:41.999Z,96278.52
2019-05-10T19:24:11.501Z,96286.93
2019-05-10T19:26:41.047Z,96289.56
2019-05-10T19:29:10.489Z,96286.12
2019-05-10T19:31:40.553Z,96290.41
2019-05-10T19:34:15.497Z,96293.27
2019-05-10T19:36:41.122Z,96299.77
2019-05-10T19:39:10.642Z,96300.81
2019-05-10T19:41:40.074Z,96308.41
2019-05-10T19:44:09.465Z,96312.39
2019-05-10T19:46:40.658Z,96301.94
2019-05-10T19:49:13.275Z,96304.89
2019-05-10T19:51:42.149Z,96294.93
2019-05-10T19:54:13.644Z,96293.56
2019-05-10T19:56:42.969Z,96290.13
2019-05-10T19:59:13.437Z,96289.30
2019-05-10T20:01:45.384Z,96288.16
2019-05-10T20:04:14.350Z,96296.49
2019-05-10T20:06:43.639Z,96298.16
2019-05-10T20:09:12.987Z,96293.86
2019-05-10T20:11:42.770Z,96284.75
2019-05-10T20:14:12.216Z,96292.54
2019-05-10T20:16:52.338Z,96294.17
2019-05-10T20:19:12.757Z,96298.23
2019-05-10T20:21:42.074Z,96295.27
2019-05-10T20:24:11.485Z,96293.99
2019-05-10T20:26:42.463Z,96289.36
2019-05-10T20:29:11.840Z,96290.97
2019-05-10T20:31:41.122Z,96295.27
2019-05-10T20:34:10.613Z,96300.08
2019-05-10T20:36:39.938Z,96303.05
2019-05-10T20:39:09.460Z,96310.80
2019-05-10T20:41:38.806Z,96319.14
2019-05-10T20:44:08.348Z,96322.63
2019-05-10T20:46:37.761Z,96325.86
2019-05-10T20:49:07.118Z,96324.20
2019-05-10T20:51:36.546Z,96324.18
2019-05-10T20:54:06.083Z,96320.13
2019-05-10T20:56:36.374Z,96316.88
2019-05-10T20:59:05.717Z,96317.57
2019-05-10T21:01:35.378Z,96316.94
2019-05-10T21:04:04.903Z,96313.41
2019-05-10T21:06:34.214Z,96320.36
2019-05-10T21:09:05.359Z,96320.13
2019-05-10T21:11:34.677Z,96313.41
2019-05-10T21:14:04.189Z,96316.67
2019-05-10T21:16:33.787Z,96304.77
2019-05-10T21:19:03.136Z,96302.39
2019-05-10T21:21:32.481Z,96297.85
2019-05-10T21:24:02.081Z,96289.86
2019-05-10T21:26:31.470Z,96289.09
2019-05-10T21:29:00.922Z,96297.48
2019-05-10T21:31:30.213Z,96294.58
2019-05-10T21:34:09.233Z,96287.41
2019-05-10T21:36:31.055Z,96284.19
2019-05-10T21:39:00.594Z,96275.87
2019-05-10T21:41:30.103Z,96271.11
2019-05-10T21:43:59.698Z,96258.82
2019-05-10T21:46:29.218Z,96256.16
2019-05-10T21:48:58.614Z,96257.55
2019-05-10T21:51:28.060Z,96254.61
2019-05-10T21:53:57.423Z,96244.95
2019-05-10T21:56:26.827Z,96251.17
2019-05-10T21:58:56.325Z,96254.16
2019-05-10T22:01:25.856Z,96260.86
2019-05-10T22:03:55.417Z,96245.33
2019-05-10T22:06:24.659Z,96245.33
2019-05-10T22:08:54.048Z,96244.48
2019-05-10T22:11:23.423Z,96229.20
2019-05-10T22:13:52.790Z,96221.98
2019-05-10T22:16:22.205Z,96208.85
2019-05-10T22:18:59.843Z,96210.73
2019-05-10T22:21:29.036Z,96223.61
2019-05-10T22:23:58.350Z,96228.95
2019-05-10T22:26:27.581Z,96234.59
2019-05-10T22:28:56.732Z,96227.10
2019-05-10T22:31:25.914Z,96234.59
2019-05-10T22:33:55.074Z,96232.71
2019-05-10T22:36:24.373Z,96223.86
2019-05-10T22:39:06.619Z,96220.66
2019-05-10T22:41:24.515Z,96217.17
2019-05-10T22:43:53.747Z,96204.60
2019-05-10T22:46:22.934Z,96194.41
2019-05-10T22:48:52.210Z,96190.88
2019-05-10T22:51:21.471Z,96195.97
2019-05-10T22:53:59.429Z,96191.73
2019-05-10T22:56:21.537Z,96185.86
2019-05-10T22:58:50.701Z,96175.64
2019-05-10T23:01:19.910Z,96174.83
2019-05-10T23:03:49.120Z,96173.25
2019-05-10T23:06:18.365Z,96164.12
2019-05-10T23:08:47.534Z,96159.06
2019-05-10T23:11:16.769Z,96150.70
2019-05-10T23:13:45.918Z,96154.76
2019-05-10T23:16:15.108Z,96152.11
2019-05-10T23:18:44.299Z,96160.92
2019-05-10T23:21:13.456Z,96158.50
2019-05-10T23:23:42.642Z,96156.88
2019-05-10T23:26:11.835Z,96163.61
2019-05-10T23:28:40.972Z,96164.41
2019-05-10T23:31:10.171Z,96156.93
2019-05-10T23:33:39.330Z,96153.20
2019-05-10T23:36:08.495Z,96145.67
2019-05-10T23:38:37.615Z,96145.69
2019-05-10T23:41:06.758Z,96131.51
2019-05-10T23:43:35.930Z,96121.31
2019-05-10T23:46:05.081Z,96118.09
2019-05-10T23:48:34.247Z,96125.60
2019-05-10T23:51:03.420Z,96138.72
2019-05-10T23:53:32.598Z,96145.17
2019-05-10T23:56:01.747Z,96148.91
2019-05-10T23:58:30.921Z,96150.78
